Milwaukee, Wisconsin
Traffic Map
Current Weather Conditions
Milwaukee, Wisconsin
Overcast Heavy Rain
Overcast

Feels Like: 1°
Wind Chill: Ceiling: 400
Heat Index: Visibility: 2mi
Dew Point: Wind: 8mph
Humidity: 93% Direction: 50° (NE)
Pressure: 29.76in Gusts: 0mph
Raw Report DataKMKE 301940Z 05007KT 2SM +RA BR OVC004 04/03 A2976 RMK AO2 TWR VIS 3 P0017 T00390028
Traffic Incident Summary
Active as of:
Severity:
Category:
InformationThere was an issue retrieving the traffic information for this location. Please try a different location or try again shortly.
Advertisements
Track Severe Weather on mobile